Tiempo atmosférico en la estación meteorológica de Madrid, Madrid (667 m.)



Fecha
DESCASC
Temp. máxima en grados centígrados (hora)
DESCASC
Temp. mínima en grados centígrados (hora)
DESCASC
Temp. media en grados centígrados
DESCASC
Racha de viento máxima en m/sg (hora)
DESCASC
Velocidad máxima media en intervalos de 10 minutos(hora)
DESCASC
Precipitaciones diarias en mm
DESCASC
Precipitaciones de 00:00 a 06:00 en mm
DESCASC
Precipitaciones de 06:00 a 12:00 en mm
DESCASC
Precipitaciones de 12:00 a 18:00 en mm
DESCASC
Precipitaciones de 18:00 a 24:00 en mm
DESCASC

Gráficas

Temp. máximas Temp. mínimas Temp. medias Precipitaciones Rachas de viento máximas Velocidades máximas media en intervalos de 10 minutos

Datos horarios

Fecha y hora oficial Temperatura (ºC) Velocidad del viento (km/h) Dirección del viento Racha (km/h) Dirección de racha Precipitación (mm) Presión (hPa) Tendencia (hPa) Humedad (%)
2020-04-06 23:00:00 13.6 0 Calma -- -- 0.1 943.9 1.4 66
2020-04-06 22:00:00 14.9 0 Calma -- -- 0 943.6 1.2 51
2020-04-06 21:00:00 15.2 0 Calma 10 Oeste 0 943 0.5 48
2020-04-06 20:00:00 16 7 Noroeste 16 Noroeste 0 942.5 0.2 46
2020-04-06 19:00:00 16.6 4 Oeste 18 Oeste 0 942.4 -0.2 47
2020-04-06 18:00:00 16.7 4 Oeste 22 Oeste 0 942.5 -0.7 45
2020-04-06 17:00:00 17.2 11 Sudoeste 27 Sudoeste 0 942.3 -0.6 44
2020-04-06 16:00:00 17.5 6 Oeste 25 Oeste 0 942.6 -0.1 45
2020-04-06 15:00:00 16.7 10 Oeste 26 Sur 0 943.2 0.8 49
2020-04-06 14:00:00 16.9 10 Sudoeste 22 Sudoeste 0 942.9 0.7 50
2020-04-06 13:00:00 15.6 8 Sudoeste 20 Sudoeste 0 942.7 1.2 59
2020-04-06 12:00:00 14.8 6 Sudoeste 17 Sur 0 942.4 1.8 67
2020-04-06 11:00:00 13.4 3 Sur 15 Sur 0 942.2 2.1 82
2020-04-06 10:00:00 12.1 3 Sur 14 Sur 0.4 941.5 1.8 86
2020-04-06 09:00:00 11.8 4 Sur 17 Sudeste 0.1 940.6 1.4 86
2020-04-06 08:00:00 12.1 5 Sur 14 Sur 0.2 940.1 0.8 86
2020-04-06 07:00:00 12.1 2 Sur 11 Sudeste 0.2 939.7 0.5 84
2020-04-06 06:00:00 12.5 5 Sur 17 Sur 0 939.2 -0.3 77
2020-04-06 05:00:00 13.2 6 Sur 13 Sudeste 0 939.3 -0.3 73
2020-04-06 04:00:00 13.5 5 Sur 10 Sudeste 0 939.2 0 72
2020-04-06 03:00:00 13.1 2 Sudoeste 10 Sur 0.3 939.5 0.6 79
2020-04-06 02:00:00 14.5 7 Sudoeste 15 Sudoeste 0 939.6 0.9 59
2020-04-06 01:00:00 15.2 5 Sudoeste 17 Sudoeste 0 939.2 0.9 54
2020-04-06 00:00:00 15.1 6 Sudoeste 14 Oeste 0 938.9 1.3 53
2020-04-05 23:00:00 15.5 4 Sudoeste 10 Sudoeste 0 938.7 1.2 51
2020-04-05 22:00:00 16 5 Sudoeste 11 Sudoeste 0 938.3 0.6 49
2020-04-05 21:00:00 17 5 Sudoeste 14 Sur 0 937.6 0.1 45
2020-04-05 20:00:00 17.8 5 Sudoeste 17 Sur 0 937.5 -0.7 43
2020-04-05 19:00:00 18.6 7 Sur 20 Sudeste 0 937.7 -0.8 40
2020-04-05 18:00:00 18.8 7 Sudeste 21 Sur 0 937.5 -1.2 41
2020-04-05 17:00:00 18.2 6 Sur 25 Sudoeste 0 938.2 -1.5 41
2020-04-05 16:00:00 18.7 8 Sudoeste 26 Sudeste 0 938.5 -1.5 40
2020-04-05 15:00:00 17.8 8 Sur 21 Sur 0 938.7 -1.5 44
2020-04-05 14:00:00 15.7 6 Sudeste 18 Sur 0 939.7 -0.3 50
2020-04-05 13:00:00 15 4 Sur 16 Sur 0 940 0 53
2020-04-05 12:00:00 13.2 3 Sudeste 14 Sudeste 0 940.2 0.8 58
2020-04-05 11:00:00 12 3 Sudeste 15 Sudeste 0 940 0.7 62
2020-04-05 10:00:00 10.7 6 Sudeste 16 Sudeste 0 940 1.6 64
2020-04-05 09:00:00 9.6 6 Este 12 Este 0 939.4 1 71
2020-04-05 08:00:00 9 0 Calma 13 Sur 0 939.3 1.1 71
2020-04-05 07:00:00 10 7 Sudeste 16 Sudeste 0 938.4 0.3 67
2020-04-05 06:00:00 10.3 6 Sudeste 15 Sur 0 938.4 0.1 67
2020-04-05 05:00:00 10.3 2 Sur 14 Sudeste 0 938.2 -0.1 67
2020-04-05 04:00:00 10.6 6 Sudeste 26 Sudeste 0 938.1 -0.4 65
2020-04-05 03:00:00 10.8 13 Sudeste 24 Sudeste 0 938.3 0.1 61
2020-04-05 02:00:00 11.1 9 Sudeste 27 Sudeste 0 938.3 0.6 56
2020-04-05 01:00:00 11.8 11 Sudeste 30 Sudeste 0 938.5 0.9 52
2020-04-05 00:00:00 12.4 10 Sur 27 Sudeste 0 938.2 1.2 48
2020-04-04 23:00:00 13 10 Sudeste 30 Sudeste 0 937.7 0.9 46
2020-04-04 22:00:00 13.7 11 Sudeste 30 Sudeste 0 937.6 0.9 44
2020-04-04 21:00:00 14.7 5 Sudeste 24 Sudeste 0 937 0.6 41
2020-04-04 20:00:00 15.7 10 Sur 29 Sudeste 0 936.8 0.3 37
2020-04-04 19:00:00 16.3 14 Sudeste 36 Sudeste 0 936.7 -0.1 35
2020-04-04 18:00:00 17 14 Sudeste 35 Sudeste 0 936.4 -1.1 33
2020-04-04 17:00:00 17.3 17 Sudeste 39 Sur 0 936.5 -1.3 31
2020-04-04 16:00:00 18 18 Sudeste 41 Sudeste 0 936.8 -1.5 32
2020-04-04 15:00:00 17.9 18 Sudeste 38 Sudeste 0 937.5 -1.3 33
2020-04-04 14:00:00 16.1 16 Sur 38 Sur 0 937.8 -0.9 36
2020-04-04 13:00:00 15.8 9 Sudeste 33 Sudeste 0 938.3 -0.4 44
2020-04-04 12:00:00 13.2 9 Sudeste 20 Este 0 938.8 0.6 50
2020-04-04 11:00:00 10.4 7 Este 15 Sudeste 0 938.7 1.2 56
2020-04-04 10:00:00 7.9 8 Nordeste 20 Nordeste 0 938.7 1.2 58
2020-04-04 09:00:00 6.8 10 Nordeste 20 Nordeste 0 938.2 0.9 59
2020-04-04 08:00:00 6.3 8 Nordeste 16 Nordeste 0 937.5 0.1 60
2020-04-04 07:00:00 6.2 6 Nordeste 14 Nordeste 0 937.5 -0.1 61
2020-04-04 06:00:00 7 10 Nordeste 18 Nordeste 0 937.3 -0.6 55
2020-04-04 05:00:00 8.1 10 Nordeste 18 Nordeste 0 937.4 -0.5 51
2020-04-04 04:00:00 8.4 7 Nordeste 14 Nordeste 0 937.6 -0.4 51
2020-04-04 03:00:00 9.4 6 Nordeste 14 Nordeste 0 937.9 -0.1 48
2020-04-04 02:00:00 9.4 3 Nordeste 8 Nordeste 0 937.9 -0.1 49
2020-04-04 01:00:00 9.3 0 Calma -- -- 0 938 0.5 46
2020-04-04 00:00:00 9.8 0 Calma 2 Sudeste 0 938 1 41
2020-04-03 23:00:00 10.3 0 Calma 6 Sudoeste 0 938 0.9 40
2020-04-03 22:00:00 11.5 2 Sudoeste 10 Sudeste 0 937.5 0.6 36
2020-04-03 21:00:00 13.1 3 Sur 13 Sur 0 937 0.2 30
2020-04-03 20:00:00 14.7 3 Sur 14 Sur 0 937.1 0 26
2020-04-03 19:00:00 15.9 5 Sur 16 Sudeste 0 936.9 -0.9 25
2020-04-03 18:00:00 16.6 5 Sur 17 Sudeste 0 936.8 -1.3 25
2020-04-03 17:00:00 16.5 7 Sur 16 Sur 0 937.1 -1.5 24
2020-04-03 16:00:00 16.4 4 Sudoeste 26 Sur 0 937.8 -1.1 25
2020-04-03 15:00:00 16.3 4 Sudoeste 13 Sudoeste 0 938.1 -1 28
2020-04-03 14:00:00 14.3 3 Sur 12 Sur 0 938.6 -0.4 33
2020-04-03 13:00:00 13.2 3 Sur 13 Sur 0 938.9 0.2 37
2020-04-03 12:00:00 11.4 3 Sudeste 13 Sudeste 0 939.1 0.8 44
2020-04-03 11:00:00 8.8 5 Sudeste 12 Oeste 0 939 1.3 52
2020-04-03 10:00:00 6.7 4 Este 10 Nordeste 0 938.7 1.7 62
2020-04-03 09:00:00 5.6 5 Este 9 Este 0 938.3 1.5 69
2020-04-03 08:00:00 4.7 0 Calma 5 Nordeste 0 937.7 1 77
2020-04-03 07:00:00 5.4 0 Calma 7 Nordeste 0 937 0.1 73
2020-04-03 06:00:00 5.9 3 Este 8 Este 0 936.8 -0.3 69
2020-04-03 05:00:00 6.7 4 Este 9 Este 0 936.7 -0.3 64
2020-04-03 04:00:00 7.5 4 Nordeste 13 Nordeste 0 936.9 0 61
2020-04-03 03:00:00 8.4 5 Nordeste 12 Este 0 937.1 0.3 57
2020-04-03 02:00:00 9.2 5 Este 18 Nordeste 0 937 0.3 55
2020-04-03 01:00:00 10 9 Nordeste 18 Nordeste 0 936.9 0.9 55
2020-04-03 00:00:00 10.8 8 Nordeste 19 Nordeste 0 936.8 1.7 53
2020-04-02 23:00:00 11.2 6 Nordeste 22 Nordeste 0 936.7 1.9 51
2020-04-02 22:00:00 11.6 9 Nordeste 21 Norte 0 936 1.7 50
2020-04-02 21:00:00 12.1 9 Nordeste 20 Nordeste 0 935.1 1.4 47
2020-04-02 20:00:00 12.4 5 Nordeste 31 Nordeste 0 934.8 1.1 45
2020-04-02 19:00:00 13.2 7 Nordeste 35 Nordeste 0 934.3 0.7 40
2020-04-02 18:00:00 13.5 13 Nordeste 34 Nordeste 0 933.7 0 38
2020-04-02 17:00:00 13.3 17 Nordeste 35 Nordeste 0 933.7 0 38
2020-04-02 16:00:00 14.7 10 Nordeste 32 Nordeste 0 933.6 -0.5 40
2020-04-02 15:00:00 14.8 14 Nordeste 30 Nordeste 0 933.7 -0.3 41
2020-04-02 14:00:00 14.1 11 Este 23 Este 0 933.7 0 39
2020-04-02 13:00:00 13.3 8 Nordeste 21 Este 0 934.1 0.7 43
2020-04-02 12:00:00 11.2 7 Este 21 Nordeste 0 934 1 53
2020-04-02 11:00:00 8.4 8 Nordeste 23 Nordeste 0 933.7 1.1 64
2020-04-02 10:00:00 6.6 11 Nordeste 23 Nordeste 0 933.4 0.9 66
2020-04-02 09:00:00 5.5 10 Nordeste 19 Nordeste 0 933 0.7 72
2020-04-02 08:00:00 4.5 6 Nordeste 14 Nordeste 0 932.6 0.3 79
2020-04-02 07:00:00 3.6 0 Calma 3 Nordeste 0 932.5 0 81
2020-04-02 06:00:00 4.6 2 Este 18 Nordeste 0 932.3 -0.9 75
2020-04-02 05:00:00 5.1 6 Nordeste 14 Nordeste 0 932.3 -1.2 73
2020-04-02 04:00:00 4.7 0 Calma 5 Noroeste 0 932.5 -1 80
2020-04-02 03:00:00 5.4 0 Calma 5 Sur 0 933.2 -0.4 74
2020-04-02 02:00:00 5.9 0 Calma 4 Sudoeste 0 933.5 0 71
2020-04-02 01:00:00 6 3 Sudoeste 4 Sudoeste 0 933.5 0.2 64
2020-04-02 00:00:00 6.6 0 Calma 6 Noroeste 0 933.6 1.1 60
2020-04-01 23:00:00 7.4 4 Noroeste 9 Oeste 0 933.5 0.9 57
2020-04-01 22:00:00 8.2 4 Oeste 12 Oeste 0 933.3 1.1 52
2020-04-01 21:00:00 10.1 6 Oeste 15 Oeste 0 932.5 0.1 50
2020-04-01 20:00:00 11.5 7 Oeste 24 Oeste 0 932.6 0.3 42
2020-04-01 19:00:00 12.4 10 Oeste 24 Noroeste 0 932.2 -0.4 40
2020-04-01 18:00:00 12.2 14 Oeste 27 Sudoeste 0 932.4 -0.5 43
2020-04-01 17:00:00 13.1 6 Sudoeste 23 Oeste 0 932.3 -1 42
2020-04-01 16:00:00 12.5 9 Oeste 22 Sudoeste 0 932.6 -1 45
2020-04-01 15:00:00 12.3 7 Sudoeste 20 Sudoeste 0 932.9 -0.7 47
2020-04-01 14:00:00 11.5 9 Oeste 20 Oeste 0 933.3 -0.2 62
2020-04-01 13:00:00 9.3 4 Oeste 16 Oeste 0 933.6 0.6 80
2020-04-01 12:00:00 8.6 5 Sudoeste 13 Sudoeste 0 933.6 0.9 84
2020-04-01 11:00:00 8.6 4 Sur 12 Sur 0.8 933.5 1.3 86
2020-04-01 10:00:00 8.3 4 Este 8 Este 0.1 933 1.4 87
2020-04-01 09:00:00 7.9 4 Sudeste 7 Sudeste 0 932.7 1.3 88
2020-04-01 08:00:00 7.7 2 Sudeste 6 Sudeste 0 932.2 0.4 88
2020-04-01 07:00:00 7.6 0 Calma 8 Este 0 931.6 -0.3 87
2020-04-01 06:00:00 7.6 3 Este 8 Este 0 931.4 -0.6 87
2020-04-01 05:00:00 7.6 2 Sudeste 7 Sudeste 0 931.8 0.1 86
2020-04-01 04:00:00 7.6 3 Este 19 Este 0 931.9 0.3 87
2020-04-01 03:00:00 7.5 5 Este 13 Este 0 932 0.5 87
2020-04-01 02:00:00 7.8 5 Este 9 Sudeste 0 931.7 0.5 87
2020-04-01 01:00:00 7.7 3 Este 14 Este 0.2 931.6 0.9 87
2020-04-01 00:00:00 7.7 9 Este 15 Este 0 931.5 1.8 87
2020-03-31 23:00:00 8 3 Sur 20 Sudeste 0 931.2 2.1 87
2020-03-31 22:00:00 9.1 10 Sur 23 Sur 5.7 930.7 1.7 88
2020-03-31 21:00:00 9.1 5 Este 15 Sudeste 1.2 929.7 1.2 88
2020-03-31 20:00:00 9 7 Este 12 Este 0.1 929.1 1.1 88
2020-03-31 19:00:00 8.9 3 Sudeste 18 Sudeste 1.8 929 0.8 88
2020-03-31 18:00:00 9.3 4 Este 16 Este 0.5 928.5 0.4 88
2020-03-31 17:00:00 8.7 6 Este 14 Sudeste 0.5 928 -0.3 88
2020-03-31 16:00:00 7.5 9 Nordeste 18 Nordeste 0.3 928.2 -0.2 89
2020-03-31 15:00:00 5.6 7 Nordeste 26 Nordeste 0.8 928.1 -0.5 89
2020-03-31 14:00:00 4.4 12 Nordeste 31 Nordeste 0.3 928.3 -0.5 89
2020-03-31 13:00:00 4 15 Nordeste 31 Nordeste 1 928.4 -0.6 89
2020-03-31 12:00:00 2.9 14 Nordeste 32 Nordeste 2.5 928.6 0 89
2020-03-31 11:00:00 2.2 12 Nordeste 32 Nordeste 2.1 928.8 0.3 89
2020-03-31 10:00:00 1.6 12 Nordeste 33 Nordeste 1.2 929 0.5 89
2020-03-31 09:00:00 0.8 17 Nordeste 35 Nordeste 1 928.6 -0.4 89
2020-03-31 08:00:00 0.5 17 Nordeste 35 Nordeste 1.3 928.5 -0.7 89
2020-03-31 07:00:00 0.3 13 Nordeste 34 Nordeste 0.2 928.5 -1.3 89
2020-03-31 06:00:00 0.2 16 Nordeste 38 Este 0.6 929 -1.9 89
2020-03-31 05:00:00 0.3 16 Nordeste 39 Nordeste 0.2 929.2 -2.1 89
2020-03-31 04:00:00 0.3 20 Nordeste 39 Nordeste 0.4 929.8 -2.3 89
2020-03-31 03:00:00 0.5 16 Nordeste 40 Nordeste 0.6 930.9 -1.8 89
2020-03-31 02:00:00 0.6 15 Nordeste 37 Nordeste 0.5 931.3 -1.9 89
2020-03-31 01:00:00 0.8 18 Nordeste 40 Nordeste 1.2 932.1 -1 89
2020-03-31 00:00:00 1 14 Nordeste 37 Nordeste 1.2 932.7 -0.3 88
2020-03-30 23:00:00 1.5 18 Nordeste 36 Nordeste 0.4 933.2 0 82
2020-03-30 22:00:00 2.3 15 Nordeste 43 Nordeste 0 933.1 -0.4 75
2020-03-30 21:00:00 2.4 15 Nordeste 35 Nordeste 0 933 -0.7 77
2020-03-30 20:00:00 2.8 13 Nordeste 37 Nordeste 0 933.2 -0.8 76
2020-03-30 19:00:00 3 13 Nordeste 35 Nordeste 0 933.5 -0.8 73
2020-03-30 18:00:00 3.2 14 Nordeste 36 Nordeste 0 933.7 -1.3 74
2020-03-30 17:00:00 2.7 11 Nordeste 35 Este 0.6 934 -1.3 84
2020-03-30 16:00:00 2.3 12 Este 33 Este 0.7 934.3 -0.9 85
2020-03-30 15:00:00 2.9 14 Nordeste 35 Nordeste 0.9 935 -0.6 79
2020-03-30 14:00:00 5.3 18 Nordeste 37 Nordeste 0 935.3 -0.4 53
2020-03-30 13:00:00 6.4 17 Nordeste 39 Nordeste 0 935.2 -0.6 51
2020-03-30 12:00:00 6.7 15 Nordeste 38 Nordeste 0 935.6 0.3 51
2020-03-30 11:00:00 6 14 Nordeste 37 Nordeste 0 935.7 0.6 54
2020-03-30 10:00:00 5.9 20 Nordeste 39 Nordeste 0 935.8 0.8 54
2020-03-30 09:00:00 5.8 17 Nordeste 34 Nordeste 0 935.3 0.5 56
2020-03-30 08:00:00 6.3 16 Nordeste 37 Nordeste 0 935.1 0.1 57
2020-03-30 07:00:00 7 17 Nordeste 36 Nordeste 0 935 -0.4 55
2020-03-30 06:00:00 7.6 9 Nordeste 32 Nordeste 0 934.8 -1 54
2020-03-30 05:00:00 8.3 17 Nordeste 36 Nordeste 0 935 -0.9 52
2020-03-30 04:00:00 9.1 9 Nordeste 24 Nordeste 0 935.4 -0.8 51
2020-03-30 03:00:00 9.8 5 Nordeste 32 Nordeste 0 935.8 -0.5 49
2020-03-30 02:00:00 10.6 15 Nordeste 33 Nordeste 0 935.9 -0.5 44
2020-03-30 01:00:00 12 12 Nordeste 30 Nordeste 0 936.2 0 39
2020-03-30 00:00:00 13.3 14 Nordeste 28 Nordeste 0 936.3 0 34
2020-03-29 23:00:00 13.9 5 Nordeste 19 Oeste 0 936.4 0.1 37
2020-03-29 22:00:00 14.3 9 Oeste 20 Oeste 0 936.2 -0.1 35
2020-03-29 21:00:00 15.4 8 Sudoeste 24 Sudoeste 0 936.3 -0.2 33
2020-03-29 20:00:00 16.5 8 Sudoeste 21 Sudoeste 0 936.3 -0.7 31
2020-03-29 19:00:00 17.7 6 Oeste 21 Oeste 0 936.3 -1.3 29
2020-03-29 18:00:00 18.4 6 Oeste 24 Noroeste 0 936.5 -2 28
2020-03-29 17:00:00 18.2 6 Sudoeste 18 Sur 0 937 -2.2 28
2020-03-29 16:00:00 18.3 8 Sudoeste 17 Sudoeste 0 937.6 -2.3 28
2020-03-29 15:00:00 17.9 4 Sur 15 Sudoeste 0 938.5 -1.5 29
2020-03-29 14:00:00 16 5 Sudoeste 16 Sudoeste 0 939.2 -1.1 35
2020-03-29 13:00:00 14.6 4 Sudoeste 15 Sudoeste 0 939.9 -0.1 40
2020-03-29 12:00:00 11.9 4 Sudoeste 11 Sudeste 0 940 0 46
2020-03-29 11:00:00 9.4 2 Sudeste 6 Sur 0 940.3 0.5 54
2020-03-29 10:00:00 7.3 0 Calma 7 Este 0 940 0.5 59
2020-03-29 09:00:00 5.6 4 Este 8 Este 0 940 0.6 66
2020-03-29 08:00:00 5.1 4 Este 8 Este 0 939.8 0.2 68
2020-03-29 07:00:00 4.9 0 Calma 4 Sudeste 0 939.5 -0.5 72
2020-03-29 06:00:00 5.5 3 Sudeste 5 Sudeste 0 939.4 -0.4 67
2020-03-29 05:00:00 6.2 0 Calma 5 Sudeste 0 939.6 -0.4 63
2020-03-29 03:00:00 7 0 Calma 4 Sudoeste 0 939.8 -0.4 54
2020-03-29 01:00:00 7.9 0 Calma 5 Noroeste 0 940 -0.2 48
2020-03-29 00:00:00 8.2 4 Noroeste 9 Noroeste 0 940.4 0.5 47
2020-03-28 23:00:00 8.5 5 Noroeste 9 Oeste 0 940.2 1.1 47
2020-03-28 22:00:00 9.3 4 Oeste 12 Oeste 0 940.2 1.3 44
2020-03-28 21:00:00 10.6 6 Oeste 12 Oeste 0 939.9 1.3 40
2020-03-28 20:00:00 12.4 7 Sudoeste 15 Sudoeste 0 939.1 0.7 34
2020-03-28 19:00:00 13.5 3 Sudoeste 11 Sudeste 0 938.9 0.2 31
2020-03-28 18:00:00 14.6 4 Sudeste 14 Sudeste 0 938.6 -0.5 27
2020-03-28 17:00:00 14.9 5 Este 13 Este 0 938.4 -1 27
2020-03-28 16:00:00 14.6 4 Este 18 Este 0 938.7 -1 27
2020-03-28 15:00:00 15.3 5 Sur 20 Sur 0 939.1 -0.8 27
2020-03-28 14:00:00 14.3 6 Sur 17 Sudeste 0 939.4 -0.4 27
2020-03-28 13:00:00 12.7 5 Sudeste 16 Sudeste 0 939.7 0 25
2020-03-28 12:00:00 12.1 3 Este 14 Este 0 939.9 0.6 28
2020-03-28 11:00:00 10.1 7 Este 15 Nordeste 0 939.8 1.1 36
2020-03-28 10:00:00 7.1 7 Este 26 Nordeste 0 939.7 1.5 54
2020-03-28 09:00:00 5 16 Nordeste 24 Nordeste 0 939.3 1.4 60
2020-03-28 08:00:00 3.8 12 Nordeste 19 Nordeste 0 938.7 1.1 69
2020-03-28 07:00:00 3.4 8 Nordeste 15 Nordeste 0 938.2 0.8 74
2020-03-28 06:00:00 2.8 3 Nordeste 11 Nordeste 0 937.9 0.4 78
2020-03-28 05:00:00 3.3 5 Nordeste 12 Nordeste 0 937.6 0.3 74
2020-03-28 04:00:00 4 3 Nordeste 8 Este 0 937.4 0.4 77
2020-03-28 03:00:00 3.8 4 Norte 9 Noroeste 0 937.5 0.5 78
2020-03-28 02:00:00 3.5 5 Noroeste 8 Noroeste 0 937.3 0.7 81
2020-03-28 01:00:00 3.7 2 Noroeste 5 Sudoeste 0 937 0.6 80
2020-03-28 00:00:00 4.3 0 Calma 8 Sudoeste 0 937 1.4 76
2020-03-27 23:00:00 5.2 0 Calma 9 Sudoeste 0 936.6 1.6 71
2020-03-27 22:00:00 5.6 3 Sur 10 Sur 0 936.4 2.2 68
2020-03-27 21:00:00 6.5 0 Calma 20 Sudeste 0 935.6 1.7 62
2020-03-27 20:00:00 7.7 10 Sudeste 27 Sudeste 0 935 1.3 53
2020-03-27 19:00:00 9.2 4 Sur 15 Sudeste 0 934.2 0.2 46
2020-03-27 18:00:00 10 7 Sudeste 18 Sudeste 0 933.9 -0.3 43
2020-03-27 17:00:00 10 6 Sudeste 19 Sur 0 933.7 -0.8 44
2020-03-27 16:00:00 8.8 5 Sudeste 22 Este 0 934 -0.4 48
2020-03-27 15:00:00 7.9 6 Este 19 Sudeste 0 934.2 -0.5 52
2020-03-27 14:00:00 7.5 12 Este 23 Sudeste 0 934.5 0 55
2020-03-27 13:00:00 6.5 8 Sudeste 21 Sudeste 0 934.4 0.4 62
2020-03-27 12:00:00 5.5 6 Sudeste 15 Nordeste 0 934.7 1.3 69
2020-03-27 11:00:00 3.5 9 Este 22 Nordeste 0 934.5 1.6 77
2020-03-27 10:00:00 2.4 9 Este 22 Este 0 934 1.9 82
2020-03-27 09:00:00 2.3 9 Nordeste 34 Nordeste 0 933.4 1.3 80
2020-03-27 08:00:00 2.4 15 Nordeste 35 Nordeste 0 932.9 1.1 76
2020-03-27 07:00:00 2.5 16 Nordeste 34 Nordeste 0 932.1 0.5 72
2020-03-27 06:00:00 4.2 17 Nordeste 32 Nordeste 0 932.1 0.4 52
2020-03-27 05:00:00 4.5 15 Nordeste 31 Nordeste 0 931.8 0 48
2020-03-27 04:00:00 5.4 13 Nordeste 30 Nordeste 0 931.6 -0.2 44
2020-03-27 03:00:00 6 12 Nordeste 28 Nordeste 0 931.7 0.3 42
2020-03-27 02:00:00 6.5 11 Nordeste 28 Este 0 931.8 0 40
2020-03-27 01:00:00 7.3 11 Este 27 Este 0 931.8 0.6 39
2020-03-27 00:00:00 7.6 9 Nordeste 30 Nordeste 0 931.4 0.3 39
2020-03-26 23:00:00 8.2 5 Este 28 Nordeste 0 931.8 0.9 38
2020-03-26 22:00:00 9.1 13 Nordeste 30 Nordeste 0 931.2 0.6 34
2020-03-26 21:00:00 10.1 15 Nordeste 32 Nordeste 0 931.1 1 31
2020-03-26 20:00:00 10.9 14 Nordeste 28 Nordeste 0 930.9 2 29
2020-03-26 19:00:00 12.2 15 Nordeste 31 Nordeste 0 930.6 1.2 28
2020-03-26 18:00:00 13.4 13 Nordeste 35 Nordeste 0 930.1 0.6 27
2020-03-26 17:00:00 14.6 15 Nordeste 32 Nordeste 0 928.9 -1.7 25
2020-03-26 16:00:00 14.9 12 Nordeste 29 Nordeste 0 929.4 -1.5 25
2020-03-26 15:00:00 15.3 12 Nordeste 27 Este 0 929.5 -1.9 22
2020-03-26 14:00:00 14.2 6 Sudeste 19 Este 0 930.6 -1.3 22
2020-03-26 13:00:00 12.9 4 Sur 17 Este 0 930.9 -1.4 24
2020-03-26 12:00:00 12.7 4 Sur 13 Sur 0 931.4 -0.8 25
2020-03-26 11:00:00 10.1 4 Sudoeste 14 Sudoeste 0 931.9 -0.5 28
2020-03-26 10:00:00 7.8 2 Este 18 Este 0 932.3 0.2 32
2020-03-26 09:00:00 6.2 10 Este 22 Este 0 932.2 0.4 36
2020-03-26 08:00:00 5.2 8 Este 15 Este 0 932.4 0.7 36
2020-03-26 07:00:00 4.7 0 Calma 8 Sudoeste 0 932.1 0.2 60
2020-03-26 06:00:00 4.5 0 Calma 7 Sudeste 0 931.8 -0.6 55
2020-03-26 05:00:00 5.6 0 Calma 6 Sur 0 931.7 -1.4 48
2020-03-26 04:00:00 5.9 0 Calma 8 Nordeste 0 931.9 -1.7 51
2020-03-26 03:00:00 7.4 3 Nordeste 11 Nordeste 0 932.4 -1.1 51
2020-03-26 02:00:00 7.4 0 Calma 5 Sudoeste 0 933.1 -0.4 68
2020-03-26 01:00:00 8.3 0 Calma 7 Nordeste 0 933.6 -0.2 61
2020-03-26 00:00:00 9.1 3 Norte 13 Norte 0 933.5 -0.4 69
2020-03-25 23:00:00 9.6 5 Oeste 8 Oeste 0 933.5 -0.2 69
2020-03-25 22:00:00 10.7 4 Oeste 12 Oeste 0 933.8 0.1 61
2020-03-25 21:00:00 12 4 Oeste 14 Norte 0 933.9 0.3 45
2020-03-25 20:00:00 13.9 5 Norte 20 Oeste 0 933.7 -0.3 36
2020-03-25 19:00:00 15.4 8 Oeste 22 Sudoeste 0 933.7 -0.9 40
2020-03-25 18:00:00 16 12 Oeste 27 Oeste 0 933.6 -2 39
2020-03-25 17:00:00 16.2 9 Oeste 23 Sudoeste 0 934 -2.3 38
2020-03-25 16:00:00 16.3 8 Oeste 26 Oeste 0 934.6 -2.4 37
2020-03-25 15:00:00 16.2 9 Sudoeste 25 Sudoeste 0 935.6 -1.9 40
2020-03-25 14:00:00 14.8 9 Sur 21 Sur 0 936.3 -1.1 44
2020-03-25 13:00:00 13.2 4 Sur 19 Sur 0 937 -0.7 48
2020-03-25 12:00:00 12.2 5 Sur 18 Sur 0 937.5 -0.2 51
2020-03-25 11:00:00 10.5 8 Sur 20 Sur 0 937.4 -0.4 54
2020-03-25 10:00:00 9 5 Sudoeste 16 Sudoeste 0 937.7 0.1 58
2020-03-25 09:00:00 7.6 6 Sudoeste 13 Sudoeste 0 937.7 -0.1 66
2020-03-25 08:00:00 6.6 6 Sudoeste 13 Sudoeste 0 937.8 -0.2 72
2020-03-25 07:00:00 6.2 5 Sudoeste 10 Sudoeste 0 937.6 -0.6 74
2020-03-25 06:00:00 7.5 5 Sudoeste 14 Sudoeste 0 937.8 -0.8 66
2020-03-25 05:00:00 7.9 2 Sudoeste 13 Sudoeste 0 938 -0.7 66
2020-03-25 04:00:00 8.4 5 Sur 16 Sudeste 0 938.2 -0.3 63
2020-03-25 03:00:00 8.5 7 Sur 17 Sur 0 938.6 0.3 61
2020-03-25 02:00:00 8.9 5 Sur 21 Sur 0 938.7 0.4 60
2020-03-25 01:00:00 9.2 6 Sudoeste 18 Sur 0 938.5 0.4 61
2020-03-25 00:00:00 10.2 3 Sudoeste 11 Sudoeste 0 938.3 0.6 61
2020-03-24 23:00:00 10.5 5 Sur 14 Sudoeste 0 938.3 1.1 62
2020-03-24 22:00:00 11.1 5 Sur 15 Sudoeste 0 938.1 1.4 61
2020-03-24 21:00:00 11.4 0 Calma 10 Sudeste 0 937.7 1.5 58
2020-03-24 20:00:00 12.1 4 Sudoeste 18 Sur 0 937.2 1.1 55
2020-03-24 19:00:00 12.8 4 Sur 14 Sudeste 0 936.7 0.5 55
2020-03-24 18:00:00 13.6 4 Sur 14 Sudoeste 0 936.2 -0.2 48
2020-03-24 17:00:00 14.1 6 Sudeste 19 Sudeste 0 936.1 -1.1 43
2020-03-24 16:00:00 14.4 9 Este 19 Este 0 936.2 -1.3 41
2020-03-24 15:00:00 14.4 10 Este 27 Nordeste 0 936.4 -1.3 42
2020-03-24 14:00:00 14.3 9 Nordeste 29 Este 0 937.2 -0.7 43
2020-03-24 13:00:00 14.8 7 Nordeste 30 Nordeste 0 937.5 -0.5 43
2020-03-24 12:00:00 14.1 10 Este 30 Este 0 937.7 0 48
2020-03-24 11:00:00 11.5 12 Nordeste 32 Este 0 937.9 0.2 58
2020-03-24 10:00:00 10 16 Nordeste 31 Nordeste 0 938 0.6 63
2020-03-24 09:00:00 9.1 11 Nordeste 32 Nordeste 0.1 937.7 0.7 69
2020-03-24 08:00:00 8.3 12 Nordeste 30 Nordeste 0.3 937.7 0.8 76
2020-03-24 07:00:00 8.4 13 Nordeste 27 Nordeste 0.3 937.4 0.2 73
2020-03-24 06:00:00 8.9 12 Nordeste 28 Nordeste 0 937 -0.5 67
2020-03-24 05:00:00 9.1 12 Nordeste 27 Nordeste 0 936.9 -0.5 66
2020-03-24 04:00:00 9.1 11 Nordeste 24 Norte 0 937.2 -0.5 66
2020-03-24 03:00:00 9.3 8 Nordeste 19 Nordeste 0 937.5 -0.2 69
2020-03-24 02:00:00 9.2 10 Nordeste 20 Nordeste 0 937.4 -0.3 69
2020-03-24 01:00:00 9.4 8 Nordeste 18 Nordeste 0 937.7 0.1 68
2020-03-24 00:00:00 9.8 8 Nordeste 16 Nordeste 0 937.7 0.4 66
2020-03-23 23:00:00 10.3 6 Nordeste 18 Nordeste 0 937.7 1.1 65
2020-03-23 22:00:00 10.7 7 Nordeste 20 Este 0 937.6 1.2 62
2020-03-23 21:00:00 11.2 6 Este 15 Este 0 937.3 1.5 62
2020-03-23 20:00:00 11.2 8 Nordeste 20 Este 0 936.6 0.8 56
2020-03-23 19:00:00 12 8 Este 22 Este 0 936.4 0.8 53
2020-03-23 18:00:00 11.7 11 Este 29 Sudeste 0 935.8 -0.3 57
2020-03-23 17:00:00 11.1 12 Sudeste 37 Este 0.5 935.8 -0.8 66
2020-03-23 16:00:00 13.8 12 Este 21 Este 0 935.6 -1.6 45
2020-03-23 15:00:00 12.5 3 Sudeste 18 Nordeste 2.1 936.1 -1.4 67
2020-03-23 14:00:00 11.2 10 Nordeste 27 Nordeste 0 936.6 -1 62
2020-03-23 13:00:00 11.5 10 Nordeste 22 Nordeste 0 937.2 0 67
2020-03-23 12:00:00 9 9 Este 21 Este 0.5 937.5 0.9 81
2020-03-23 11:00:00 8.5 9 Este 40 Nordeste 1 937.6 1.2 85
2020-03-23 10:00:00 8.6 10 Nordeste 22 Nordeste 0 937.2 1 83
2020-03-23 09:00:00 7.7 6 Nordeste 15 Nordeste 0 936.6 0.8 86
2020-03-23 08:00:00 7.4 3 Nordeste 10 Nordeste 1.6 936.4 1 88
2020-03-23 07:00:00 7.4 5 Este 16 Este 0.6 936.2 1 88
2020-03-23 06:00:00 7.6 6 Este 14 Este 1.4 935.8 0.3 88
2020-03-23 05:00:00 7.5 5 Este 14 Este 0.4 935.4 0 88
2020-03-23 04:00:00 7.6 5 Este 14 Nordeste 0.8 935.2 -0.4 87
2020-03-23 03:00:00 8 5 Nordeste 15 Nordeste 1 935.5 -0.3 87
2020-03-23 02:00:00 8.1 7 Nordeste 14 Nordeste 0.5 935.4 -0.3 86
2020-03-23 01:00:00 8.2 6 Nordeste 13 Este 0 935.6 0.3 86
2020-03-23 00:00:00 8.2 5 Este 10 Este 0.5 935.8 1 85
2020-03-22 23:00:00 8.2 3 Este 9 Este 2.1 935.7 1.9 84
2020-03-22 22:00:00 8.2 4 Sudeste 25 Sudeste 2 935.3 1.9 80
2020-03-22 21:00:00 10.1 9 Sudeste 23 Sudeste 0 934.8 2 62
2020-03-22 20:00:00 9.3 2 Norte 7 Sudeste 0 933.8 1.4 68
2020-03-22 19:00:00 9.7 3 Sur 23 Sudeste 0 933.4 0.9 63
2020-03-22 18:00:00 11.8 6 Nordeste 23 Nordeste 0 932.8 0 55
2020-03-22 17:00:00 12.1 7 Nordeste 22 Nordeste 0 932.4 -1.1 49
2020-03-22 16:00:00 11.6 12 Nordeste 26 Nordeste 0 932.5 -1.2 51
2020-03-22 15:00:00 11.6 9 Norte 23 Nordeste 0 932.8 -1 54
2020-03-22 14:00:00 10.9 10 Nordeste 26 Nordeste 0 933.5 -0.4 59
2020-03-22 13:00:00 11 10 Nordeste 26 Nordeste 0 933.7 -0.1 55
2020-03-22 12:00:00 10.6 8 Nordeste 22 Nordeste 0 933.8 0.3 59
2020-03-22 11:00:00 9.9 6 Nordeste 20 Nordeste 0 933.9 0.9 61
2020-03-22 10:00:00 8.6 7 Este 17 Nordeste 0 933.8 1.1 69
2020-03-22 09:00:00 7.2 8 Nordeste 14 Nordeste 0 933.5 0.8 75
2020-03-22 08:00:00 6.5 7 Nordeste 14 Nordeste 0 933 0.4 78
2020-03-22 07:00:00 6.8 5 Nordeste 13 Nordeste 0 932.7 -0.1 77
2020-03-22 06:00:00 6.8 3 Nordeste 10 Este 0 932.7 -0.3 80
2020-03-22 05:00:00 6.8 3 Este 10 Este 0 932.6 -1 77
2020-03-22 04:00:00 6.9 5 Este 11 Sudeste 0 932.8 -0.9 77
2020-03-22 03:00:00 7.1 3 Este 12 Este 0 933 -1.1 76
2020-03-22 02:00:00 6.9 6 Este 12 Sudeste 0 933.6 -0.2 73
2020-03-22 01:00:00 7 5 Sudeste 16 Sudeste 0 933.7 0 73
2020-03-22 00:00:00 7.2 8 Sudeste 15 Sudeste 0 934.1 0.5 76
2020-03-21 23:00:00 7.6 4 Este 23 Este 0.1 933.8 0.6 77
2020-03-21 22:00:00 8 6 Este 14 Este 0.1 933.7 1 80
2020-03-21 21:00:00 8.3 4 Este 13 Este 0 933.6 0.6 77
2020-03-21 20:00:00 8.4 5 Este 11 Este 0 933.2 0.6 76
2020-03-21 19:00:00 8.2 0 Calma 6 Sudoeste 0 932.7 -0.1 77
2020-03-21 18:00:00 8.4 2 Sur 9 Sudoeste 0 933 -0.5 77
2020-03-21 17:00:00 8.4 0 Calma 13 Sur 0 932.6 -1.2 77
2020-03-21 16:00:00 8.1 2 Norte 13 Oeste 0.1 932.8 -1 83
2020-03-21 15:00:00 7.8 6 Oeste 13 Sudoeste 0.1 933.5 -0.6 84
2020-03-21 14:00:00 7.7 5 Sudoeste 25 Sudoeste 0.4 933.8 -0.4 83
2020-03-21 13:00:00 8.7 6 Sur 16 Sur 0.6 933.8 -0.6 86
2020-03-21 12:00:00 9 5 Sudeste 13 Sudeste 0.5 934.1 0.1 85
2020-03-21 11:00:00 8.8 7 Sudeste 17 Sudeste 0.5 934.2 0.4 77
2020-03-21 10:00:00 9 7 Este 23 Este 0 934.4 0.7 67
2020-03-21 09:00:00 8.9 9 Este 23 Este 0 934 -0.2 65
2020-03-21 08:00:00 8.8 9 Este 22 Este 0 933.8 -0.6 65
2020-03-21 07:00:00 8.8 6 Este 20 Este 0 933.7 -1.3 66
2020-03-21 06:00:00 8.7 6 Este 19 Este 0 934.2 -1.6 64
2020-03-21 05:00:00 8.4 6 Este 17 Nordeste 0 934.4 -1.9 65
2020-03-21 04:00:00 8.3 9 Este 21 Este 0 935 -1.4 66
2020-03-21 03:00:00 8.4 6 Este 26 Sudeste 0 935.8 -0.6 66
2020-03-21 02:00:00 8.6 11 Sudeste 22 Sudeste 0 936.3 0 67
2020-03-21 01:00:00 9.3 8 Sudeste 28 Sudeste 0 936.4 0.1 66
2020-03-21 00:00:00 9.7 7 Sudeste 17 Sudeste 0 936.4 -0.2 65
2020-03-20 23:00:00 10.3 8 Sudeste 15 Sudeste 0 936.3 -0.6 64
2020-03-20 22:00:00 10.6 8 Sudeste 16 Sudeste 0 936.3 -0.6 63
2020-03-20 21:00:00 11.3 9 Este 19 Sudeste 0 936.6 0 61
2020-03-20 20:00:00 11.5 9 Sudeste 24 Sudeste 0 936.9 0 59
2020-03-20 19:00:00 11.9 9 Sudeste 26 Este 0 936.9 -0.5 57
2020-03-20 18:00:00 12.2 11 Este 22 Este 0 936.6 -1.2 56
2020-03-20 17:00:00 12.2 5 Este 24 Sudeste 0 936.9 -0.9 55
2020-03-20 16:00:00 12.2 13 Sudeste 27 Sudeste 0 937.4 -0.9 55
2020-03-20 15:00:00 12.5 7 Sudeste 23 Sudeste 0 937.8 -0.6 55
2020-03-20 14:00:00 12.2 14 Sudeste 25 Sudeste 0 937.8 -1.2 56
2020-03-20 13:00:00 12.1 9 Sudeste 23 Este 0 938.3 -0.4 59
2020-03-20 12:00:00 11.3 9 Este 22 Este 0 938.4 -0.3 60
2020-03-20 11:00:00 10.6 9 Sudeste 23 Este 0 939 0.6 61
2020-03-20 10:00:00 10.5 10 Sudeste 24 Sudeste 0 938.7 0.7 60
2020-03-20 09:00:00 9.8 9 Sudeste 23 Sudeste 0 938.7 0.7 61
2020-03-20 08:00:00 9.8 7 Este 18 Sudeste 0 938.4 0.4 62
2020-03-20 07:00:00 9.5 6 Sudeste 19 Sudeste 0 938 0 62
2020-03-20 06:00:00 9.6 8 Sudeste 21 Sudeste 0 938 -0.8 62
2020-03-20 05:00:00 9.9 8 Sudeste 21 Este 0 938 -1 62
2020-03-20 04:00:00 10.2 11 Sudeste 24 Sudeste 0 938 -1.1 62
2020-03-20 03:00:00 10.7 6 Sudeste 20 Sudeste 0 938.8 -0.6 62
2020-03-20 02:00:00 10.8 9 Sudeste 22 Sudeste 0 939 -0.6 62
2020-03-20 01:00:00 11 10 Sudeste 18 Sudeste 0 939.1 -0.4 62
2020-03-20 00:00:00 11.2 6 Este 15 Sudeste 0 939.4 -0.3 60
2020-03-19 23:00:00 11.2 8 Sudeste 20 Sudeste 0 939.6 0.2 59
2020-03-19 22:00:00 11.6 9 Sudeste 23 Sudeste 0 939.5 0.4 57
2020-03-19 21:00:00 12.5 9 Sudeste 30 Sur 0 939.7 0.7 55
2020-03-19 20:00:00 13.2 12 Sudeste 23 Sudeste 0 939.4 0.2 51
2020-03-19 19:00:00 14.2 9 Sur 23 Sur 0 939.1 -0.7 47
2020-03-19 18:00:00 15.2 8 Sur 21 Sudeste 0 939 -1.7 43
2020-03-19 17:00:00 15.9 8 Sudeste 23 Sudeste 0 939.2 -2.3 40
2020-03-19 16:00:00 16.1 8 Sudeste 19 Sur 0 939.8 -2.4 40
2020-03-19 15:00:00 15 8 Este 20 Sudeste 0 940.7 -2.1 42
2020-03-19 14:00:00 16 8 Sudeste 21 Este 0 941.5 -1.8 43
2020-03-19 13:00:00 14.5 7 Sudeste 22 Sudeste 0 942.2 -1.3 45
2020-03-19 12:00:00 13.8 7 Este 19 Este 0 942.8 -0.4 47
2020-03-19 11:00:00 12.7 10 Sudeste 22 Sudeste 0 943.3 0.4 51
2020-03-19 10:00:00 10 8 Sudeste 17 Este 0 943.5 0.6 55
2020-03-19 09:00:00 10.1 7 Sudeste 17 Este 0 943.2 0.4 55
2020-03-19 08:00:00 9.7 2 Sudeste 12 Sudeste 0 942.9 0 60
2020-03-19 07:00:00 9.9 3 Sudeste 10 Sur 0 942.9 -0.4 61
2020-03-19 06:00:00 9.9 3 Sur 12 Sudeste 0 942.8 -0.9 62
2020-03-19 05:00:00 10.2 7 Sudeste 20 Sudeste 0 942.9 -1.4 63
2020-03-19 04:00:00 10.3 2 Sur 9 Sudeste 0 943.3 -1.2 67
2020-03-19 03:00:00 10.2 0 Calma 4 Sudeste 0 943.7 -1.1 67
2020-03-19 02:00:00 11.2 0 Calma 10 Sudeste 0 944.3 -0.6 62
2020-03-19 01:00:00 11.8 5 Sudeste 13 Sur 0 944.5 -0.3 62
2020-03-19 00:00:00 12.1 4 Sudoeste 7 Sudoeste 0 944.8 0.1 67
2020-03-18 23:00:00 11.8 2 Sudoeste 7 Sudoeste 0 944.9 0.3 66
2020-03-18 22:00:00 12.3 0 Calma 5 Sudeste 0 944.8 0.3 64
2020-03-18 21:00:00 12.9 0 Calma 7 Sur 0 944.7 0.1 61
2020-03-18 20:00:00 13.4 2 Sudoeste 5 Sudoeste 0 944.6 -0.1 59
2020-03-18 19:00:00 14.7 3 Sudoeste 7 Sudoeste 0 944.5 -0.5 52
2020-03-18 18:00:00 15.7 0 Calma 10 Sudeste 0 944.6 -1 48
2020-03-18 17:00:00 16.1 5 Sur 9 Sudeste 0 944.7 -1.3 46
2020-03-18 16:00:00 15.8 3 Sudeste 12 Sur 0 945 -1.8 47
2020-03-18 15:00:00 15.9 6 Sudeste 14 Sudeste 0 945.6 -1.7 48
2020-03-18 14:00:00 15.4 3 Sudeste 12 Este 0 946 -1.5 47
2020-03-18 13:00:00 14.3 4 Sudeste 13 Sur 0 946.8 -0.7 51
2020-03-18 12:00:00 13.3 3 Sudeste 8 Sudeste 0 947.3 0.1 56
2020-03-18 11:00:00 12.2 0 Calma 13 Este 0 947.5 0.4 60
2020-03-18 10:00:00 11 4 Nordeste 15 Nordeste 0 947.5 0.3 65
2020-03-18 09:00:00 10.3 8 Nordeste 15 Nordeste 0 947.2 -0.1 66
2020-03-18 08:00:00 10.1 7 Nordeste 19 Nordeste 0 947.1 0.3 68
2020-03-18 07:00:00 10 7 Nordeste 19 Nordeste 0 947.2 0.9 69
2020-03-18 06:00:00 10.1 11 Nordeste 23 Nordeste 0 947.3 0.6 70
2020-03-18 05:00:00 10.2 11 Nordeste 24 Nordeste 0 946.8 0 70
2020-03-18 04:00:00 10.2 10 Nordeste 22 Nordeste 0 946.3 -1.1 70
2020-03-18 03:00:00 10.2 10 Nordeste 25 Nordeste 0 946.7 -1 70
2020-03-18 02:00:00 10.4 11 Nordeste 28 Nordeste 0 946.8 -1.1 69
2020-03-18 01:00:00 10.5 12 Nordeste 22 Nordeste 0 947.4 -0.1 68
2020-03-18 00:00:00 10.9 12 Nordeste 25 Nordeste 0 947.7 0.6 68
2020-03-17 23:00:00 11.6 12 Nordeste 24 Nordeste 0 947.9 1.2 67
2020-03-17 22:00:00 12.4 10 Nordeste 23 Nordeste 0 947.5 1.7 64
2020-03-17 21:00:00 13.3 11 Nordeste 23 Nordeste 0 947.1 2 59
2020-03-17 20:00:00 13.6 8 Nordeste 24 Este 0 946.7 2 55
2020-03-17 19:00:00 14.1 12 Este 25 Este 0 945.8 1.2 49
2020-03-17 18:00:00 14.5 11 Este 30 Este 0 945.1 0.4 49
2020-03-17 17:00:00 15.1 14 Sudeste 35 Sudeste 0 944.7 -0.3 47
2020-03-17 16:00:00 15.5 17 Sudeste 39 Sudeste 0 944.6 -0.6 48
2020-03-17 15:00:00 14.9 12 Este 29 Este 0 944.7 -0.5 50
2020-03-17 14:00:00 13.4 9 Este 21 Este 0 945 0.2 55
2020-03-17 13:00:00 12.1 8 Este 24 Este 0 945.2 0.6 61
2020-03-17 12:00:00 10.6 9 Este 25 Nordeste 0 945.2 1.2 71
2020-03-17 11:00:00 8.6 9 Nordeste 20 Nordeste 0 944.8 1.3 84
2020-03-17 10:00:00 7 2 Norte 10 Norte 0 944.6 1.8 90
2020-03-17 09:00:00 6.5 4 Nordeste 12 Nordeste 0.2 944 2.4 90
2020-03-17 08:00:00 6.1 5 Nordeste 19 Nordeste 1.3 943.5 2.8 90
2020-03-17 07:00:00 5.5 8 Nordeste 25 Nordeste 0.1 942.8 2.2 88
2020-03-17 06:00:00 5.1 11 Nordeste 27 Nordeste 0 941.6 0.9 85
2020-03-17 05:00:00 5 10 Nordeste 26 Nordeste 0 940.7 0.1 84
2020-03-17 04:00:00 5.2 8 Nordeste 23 Nordeste 0 940.6 0.3 77
2020-03-17 03:00:00 5.2 9 Nordeste 18 Nordeste 0 940.7 0.9 76
2020-03-17 02:00:00 5 8 Nordeste 22 Nordeste 0 940.6 1.4 76
2020-03-17 01:00:00 5.6 10 Nordeste 25 Nordeste 0.2 940.3 2.2 80
2020-03-17 00:00:00 5.8 8 Nordeste 18 Nordeste 0 939.8 2.1 76
2020-03-16 23:00:00 5.2 9 Nordeste 21 Nordeste 0 939.2 2.5 79
2020-03-16 22:00:00 4.8 9 Nordeste 26 Nordeste 0 938.1 2.7 79
2020-03-16 21:00:00 4.4 12 Nordeste 26 Nordeste 0 937.7 2.3 80
2020-03-16 20:00:00 4.6 10 Nordeste 32 Nordeste 0.2 936.7 2.3 79
2020-03-16 19:00:00 5.5 11 Nordeste 24 Nordeste 0 935.4 1.7 78
2020-03-16 18:00:00 4.7 0 Calma 41 Sudeste 1.5 935.4 1.6 78
2020-03-16 17:00:00 7.3 14 Nordeste 38 Nordeste 0 934.4 0.7 63
2020-03-16 16:00:00 9.3 11 Nordeste 22 Nordeste 0 933.7 0 54
2020-03-16 15:00:00 8.3 11 Este 19 Este 0 933.8 0.3 53
2020-03-16 14:00:00 7.5 0 Calma 14 Sudeste 0 933.7 0.7 57
2020-03-16 13:00:00 6.4 4 Sudeste 17 Sudeste 0 933.7 1.2 58
2020-03-16 12:00:00 6.7 4 Sur 17 Sudeste 0 933.5 1.9 60
2020-03-16 11:00:00 7.2 6 Sudeste 19 Este 0 933 2.3 61
2020-03-16 10:00:00 4.8 8 Sudeste 16 Sudeste 0 932.5 2.3 71
2020-03-16 09:00:00 4.1 8 Sur 17 Sur 0 931.6 1.4 74
2020-03-16 08:00:00 3.6 5 Sudoeste 16 Sur 0 930.7 0.6 76
2020-03-16 07:00:00 4.2 5 Sudoeste 21 Sudoeste 0 930.2 0.2 74
2020-03-16 06:00:00 4.6 9 Sudoeste 22 Sudoeste 0 930.2 -0.7 75
2020-03-16 05:00:00 5.5 4 Oeste 16 Sudoeste 0.1 930.1 -0.9 81
2020-03-16 04:00:00 6.3 6 Oeste 14 Noroeste 0.7 930 -1 85
2020-03-16 03:00:00 7.1 4 Oeste 21 Sudoeste 1.6 930.9 -1.6 84
2020-03-16 02:00:00 8.3 9 Sudoeste 27 Sudoeste 1.1 931 -1.3 79
2020-03-16 01:00:00 9.2 5 Sudoeste 25 Sudoeste 0.1 931 -2 81
2020-03-16 00:00:00 10.1 11 Sudoeste 36 Sudoeste 3.8 932.5 -0.3 80
2020-03-15 23:00:00 12.4 9 Sudoeste 22 Sudoeste 0.1 932.3 0.3 73
2020-03-15 22:00:00 12.2 8 Sur 27 Sur 0 933 0.8 77
2020-03-15 21:00:00 11.6 9 Sur 26 Sudeste 0.1 932.8 0.2 81
2020-03-15 20:00:00 11.6 4 Sudoeste 41 Oeste 1.7 932 -1.2 77
2020-03-15 19:00:00 16.9 10 Sudoeste 26 Sudoeste 0 932.2 -1.9 51
2020-03-15 18:00:00 17.7 14 Sudoeste 32 Sudoeste 0 932.6 -1.6 48
2020-03-15 17:00:00 18.9 14 Sudoeste 31 Oeste 0 933.2 -2.1 46
2020-03-15 16:00:00 18.2 12 Oeste 32 Sudoeste 0 934.1 -2.4 47
2020-03-15 15:00:00 19.7 9 Sudoeste 25 Sudoeste 0 934.2 -3 45
2020-03-15 14:00:00 18.9 5 Sudoeste 16 Sudoeste 0 935.3 -2.6 48
2020-03-15 13:00:00 16.2 3 Sudoeste 14 Sudeste 0 936.5 -1.7 52
2020-03-15 12:00:00 15.4 4 Sudeste 14 Este 0 937.2 -0.8 52
2020-03-15 11:00:00 13.8 5 Sudeste 13 Sur 0 937.9 0.2 54
2020-03-15 10:00:00 12.3 4 Este 13 Este 0 938.2 0.5 54
2020-03-15 09:00:00 11.3 4 Nordeste 12 Nordeste 0 938 0.2 50
2020-03-15 08:00:00 10.4 7 Nordeste 14 Nordeste 0 937.7 -0.1 48
2020-03-15 07:00:00 10.5 5 Nordeste 11 Nordeste 0 937.7 -0.3 49
2020-03-15 06:00:00 10.9 3 Nordeste 9 Este 0 937.8 -1 47
2020-03-15 05:00:00 11.4 5 Este 12 Nordeste 0 937.8 -1.1 45
2020-03-15 04:00:00 11.7 4 Nordeste 12 Nordeste 0 938 -1.2 45
2020-03-15 03:00:00 12.6 4 Este 15 Nordeste 0 938.8 -0.7 43
2020-03-15 02:00:00 13.6 9 Nordeste 18 Nordeste 0 938.9 -0.5 42
2020-03-15 01:00:00 14.2 6 Nordeste 16 Nordeste 0 939.2 -0.3 46
2020-03-15 00:00:00 14.9 7 Nordeste 18 Nordeste 0 939.5 -0.1 46
2020-03-14 23:00:00 14.5 7 Norte 11 Noroeste 0 939.4 -0.1 53
2020-03-14 22:00:00 15.2 4 Noroeste 6 Noroeste 0 939.5 0.3 50
2020-03-14 21:00:00 16.3 3 Oeste 8 Sudoeste 0 939.6 1.1 47
2020-03-14 20:00:00 17.4 6 Sudoeste 11 Sudoeste 0 939.5 1.2 42
2020-03-14 19:00:00 19.4 3 Sudoeste 12 Sudoeste 0 939.2 -0.3 37
2020-03-14 18:00:00 20.9 5 Sudoeste 13 Sudoeste 0 938.5 -1.7 36
2020-03-14 17:00:00 21 4 Sudoeste 13 Sudoeste 0 938.3 -2.7 35
2020-03-14 16:00:00 20.7 3 Sudoeste 13 Sudeste 0 939.5 -2.1 39
2020-03-14 15:00:00 21 4 Oeste 11 Oeste 0 940.2 -1.7 40
2020-03-14 14:00:00 19.8 5 Sudeste 15 Este 0 941 -1.4 44
2020-03-14 13:00:00 17.8 4 Este 16 Sudeste 0 941.6 -0.5 48
2020-03-14 12:00:00 16.9 6 Este 14 Este 0 941.9 0.2 52
2020-03-14 11:00:00 15 3 Este 11 Este 0 942.4 1.1 56
2020-03-14 10:00:00 12.8 3 Este 12 Este 0 942.1 1.4 62
2020-03-14 09:00:00 11.2 7 Este 20 Nordeste 0 941.7 1.5 66
2020-03-14 08:00:00 10.3 4 Nordeste 14 Nordeste 0 941.3 1.3 67
2020-03-14 07:00:00 10.7 5 Nordeste 12 Nordeste 0 940.7 1.1 66
2020-03-14 06:00:00 11 6 Este 13 Nordeste 0 940.2 0 66
2020-03-14 05:00:00 11.3 6 Nordeste 16 Nordeste 0 940 -0.2 64
2020-03-14 04:00:00 11.4 7 Este 20 Este 0 939.6 -0.3 62
2020-03-14 03:00:00 12.6 9 Nordeste 25 Nordeste 0 940.2 0.4 58
2020-03-14 02:00:00 13.5 9 Nordeste 23 Nordeste 0 940.2 0.6 56
2020-03-14 01:00:00 14 10 Nordeste 21 Este 0 939.9 0.9 54
2020-03-14 00:00:00 15 10 Nordeste 25 Nordeste 0 939.8 1.1 51
2020-03-13 23:00:00 16 10 Nordeste 21 Nordeste 0 939.6 1.4 50
2020-03-13 22:00:00 15.7 0 Calma 12 Noroeste 0 939 2 51
2020-03-13 21:00:00 16.7 5 Noroeste 12 Noroeste 0 938.7 0.9 44
2020-03-13 20:00:00 17.8 3 Oeste 16 Sudoeste 0 938.2 0.5 41
2020-03-13 19:00:00 19.9 7 Oeste 22 Sudoeste 0 937 -1 37
2020-03-13 18:00:00 21.4 5 Sudoeste 21 Sudoeste 0 937.8 -0.6 35
2020-03-13 17:00:00 22.2 10 Sudoeste 21 Sudoeste 0 937.7 -0.9 35
2020-03-13 16:00:00 21.8 3 Sudoeste 18 Sudoeste 0 938 -1.4 36
2020-03-13 15:00:00 21.8 0 Calma 17 Sur 0 938.4 -1.3 38
2020-03-13 14:00:00 21.3 5 Sur 17 Sudeste 0 938.6 -1.2 42
2020-03-13 13:00:00 19.1 5 Sur 13 Sudeste 0 939.4 -0.1 47
2020-03-13 12:00:00 17.8 5 Sudeste 14 Este 0 939.7 0.5 52
2020-03-13 11:00:00 16.2 10 Este 17 Este 0 939.8 0.9 55
2020-03-13 10:00:00 14 10 Nordeste 20 Nordeste 0 939.5 0.9 60
2020-03-13 09:00:00 13.2 6 Nordeste 19 Nordeste 0 939.2 0.7 64
2020-03-13 08:00:00 11.8 4 Nordeste 18 Nordeste 0 938.9 0.8 65
2020-03-13 07:00:00 11.7 5 Nordeste 17 Nordeste 0 938.6 0.3 62
2020-03-13 06:00:00 12.4 9 Nordeste 15 Este 0 938.5 -0.1 58
2020-03-13 05:00:00 13.1 5 Este 12 Este 0 938.1 -0.6 58
2020-03-13 04:00:00 13.9 6 Este 10 Este 0 938.3 -0.7 57
2020-03-13 03:00:00 13.6 0 Calma 6 Sudeste 0 938.6 -0.8 59
2020-03-13 02:00:00 14 0 Calma 6 Sur 0 938.7 -0.6 54
2020-03-13 01:00:00 15.4 0 Calma 6 Sur 0 939 -0.3 49
2020-03-13 00:00:00 16.1 2 Oeste 7 Sudoeste 0 939.4 0.1 47
2020-03-12 23:00:00 17.5 4 Oeste 8 Oeste 0 939.3 0.4 43
2020-03-12 22:00:00 17.9 5 Oeste 9 Oeste 0 939.3 -0.1 41
2020-03-12 21:00:00 19 4 Oeste 8 Oeste 0 939.3 0.1 38
2020-03-12 20:00:00 19.3 4 Oeste 9 Oeste 0 938.9 -0.5 36
2020-03-12 19:00:00 21.7 4 Oeste 12 Oeste 0 939.4 -0.4 33
2020-03-12 18:00:00 23.1 3 Oeste 14 Oeste 0 939.2 -1.6 32
2020-03-12 17:00:00 23.7 9 Oeste 18 Oeste 0 939.4 -2.2 29
2020-03-12 16:00:00 23.4 4 Oeste 15 Oeste 0 939.8 -2.4 31
2020-03-12 15:00:00 23.3 0 Calma 11 Sudoeste 0 940.8 -1.8 33
2020-03-12 14:00:00 21.8 4 Sudoeste 9 Sur 0 941.6 -1.4 37
2020-03-12 13:00:00 20.3 3 Sudeste 9 Este 0 942.2 -0.4 38
2020-03-12 12:00:00 19.2 3 Sudeste 9 Nordeste 0 942.6 0 43
2020-03-12 11:00:00 16.6 5 Nordeste 16 Este 0 943 0.7 50
2020-03-12 10:00:00 14.8 10 Nordeste 19 Nordeste 0 942.6 0.3 55
2020-03-12 09:00:00 13.1 3 Nordeste 13 Nordeste 0 942.6 0.6 61
2020-03-12 08:00:00 13.1 8 Nordeste 18 Nordeste 0 942.3 -0.1 60
2020-03-12 07:00:00 13.7 8 Nordeste 19 Nordeste 0 942.3 -0.6 59
2020-03-12 06:00:00 13.5 8 Nordeste 16 Nordeste 0 942 -1.5 60
2020-03-12 05:00:00 12.4 2 Nordeste 12 Nordeste 0 942.4 -1.5 63
2020-03-12 04:00:00 13.6 4 Nordeste 19 Nordeste 0 942.9 -1.1 58
2020-03-12 03:00:00 14.5 9 Nordeste 17 Nordeste 0 943.5 -0.7 57
2020-03-12 02:00:00 14 0 Calma 10 Nordeste 0 943.9 -0.3 60
2020-03-12 01:00:00 15.4 5 Nordeste 10 Nordeste 0 944 -0.3 55
2020-03-12 00:00:00 15.6 0 Calma 5 Nordeste 0 944.2 0 54
2020-03-11 23:00:00 16.7 0 Calma 5 Sudeste 0 944.2 -0.2 51
2020-03-11 22:00:00 17.9 3 Sur 6 Sur 0 944.3 -0.1 47
2020-03-11 21:00:00 18.5 0 Calma 7 Sudoeste 0 944.2 0 45
2020-03-11 20:00:00 19.2 3 Sudoeste 8 Sudoeste 0 944.4 0.2 43
2020-03-11 19:00:00 21.1 4 Sudoeste 12 Sudoeste 0 944.4 -0.1 38
2020-03-11 18:00:00 22.8 5 Sudoeste 12 Sudoeste 0 944.2 -0.8 35
2020-03-11 17:00:00 23.2 5 Sur 15 Sur 0 944.2 -1.7 34
2020-03-11 16:00:00 23.3 3 Sur 14 Sur 0 944.5 -2.1 33
2020-03-11 15:00:00 23.1 3 Sur 12 Sur 0 945 -2.1 33
2020-03-11 14:00:00 22 4 Sur 12 Sudeste 0 945.9 -1.2 37
2020-03-11 13:00:00 19.1 3 Sudeste 10 Este 0 946.6 -0.3 42
2020-03-11 12:00:00 17.1 4 Sudeste 13 Sudeste 0 947.1 0.5 46
2020-03-11 11:00:00 15.7 5 Este 12 Este 0 947.1 1 50
2020-03-11 10:00:00 13 6 Este 12 Este 0 946.9 0.7 56
2020-03-11 09:00:00 11 5 Este 11 Este 0 946.6 0.6 62
2020-03-11 08:00:00 9.6 0 Calma 9 Nordeste 0 946.1 0.4 65
2020-03-11 07:00:00 9.8 3 Este 9 Este 0 946.2 0.3 65
2020-03-11 06:00:00 9.8 0 Calma 8 Este 0 946 -0.3 64
2020-03-11 05:00:00 10.5 3 Este 6 Este 0 945.7 -0.9 62
2020-03-11 04:00:00 10.6 0 Calma 5 Sudeste 0 945.9 -1 61
2020-03-11 03:00:00 11.4 3 Este 7 Este 0 946.3 -0.8 58
2020-03-11 02:00:00 11.7 0 Calma 5 Sur 0 946.6 -0.6 56
2020-03-11 01:00:00 12.4 0 Calma 8 Sur 0 946.9 -0.3 54
2020-03-11 00:00:00 13.4 0 Calma 9 Oeste 0 947.1 0.2 49
2020-03-10 23:00:00 14 4 Oeste 8 Oeste 0 947.2 0.3 47
2020-03-10 22:00:00 14.8 4 Oeste 12 Oeste 0 947.2 0.7 47
2020-03-10 21:00:00 15.6 7 Noroeste 13 Oeste 0 946.9 0.1 45
2020-03-10 20:00:00 17.4 5 Oeste 12 Sudoeste 0 946.9 0 39
2020-03-10 19:00:00 19.6 5 Oeste 21 Sudoeste 0 946.5 -0.6 33
2020-03-10 18:00:00 21.5 8 Sudoeste 19 Sudoeste 0 946.8 -0.8 31
2020-03-10 17:00:00 22.1 6 Oeste 17 Oeste 0 946.9 -1.3 32
2020-03-10 16:00:00 20.7 3 Oeste 13 Oeste 0 947.1 -1.8 32
2020-03-10 15:00:00 20 3 Sudoeste 18 Sur 0 947.6 -1.4 32
2020-03-10 14:00:00 18.4 5 Sudoeste 13 Sudoeste 0 948.2 -0.7 34
2020-03-10 13:00:00 16 3 Sudoeste 11 Sudoeste 0 948.9 0.3 37
2020-03-10 12:00:00 13.8 3 Sudoeste 12 Sudoeste 0 949 0.7 40
2020-03-10 11:00:00 12.2 4 Sudoeste 9 Sudoeste 0 948.9 1.1 44
2020-03-10 10:00:00 9.9 2 Sur 8 Sudeste 0 948.6 0.8 50
2020-03-10 09:00:00 8.5 0 Calma 7 Este 0 948.3 0.9 56
2020-03-10 08:00:00 7.7 2 Este 8 Este 0 947.8 0.7 57
2020-03-10 07:00:00 7.2 2 Este 5 Este 0 947.8 0.7 56
2020-03-10 06:00:00 7 0 Calma 4 Sur 0 947.4 0.3 56
2020-03-10 05:00:00 7.8 4 Sur 10 Sur 0 947.1 -0.3 51
2020-03-10 04:00:00 8.4 2 Sur 7 Sudeste 0 947.1 -0.4 51
2020-03-10 03:00:00 8.6 4 Sur 8 Sur 0 947.1 -0.6 50
2020-03-10 02:00:00 8.5 0 Calma 7 Sur 0 947.4 -0.2 51
2020-03-10 01:00:00 9.1 3 Sudoeste 8 Sudoeste 0 947.5 0.2 47
2020-03-10 00:00:00 9.6 3 Sur 7 Sur 0 947.7 0.8 44
2020-03-09 23:00:00 11.1 4 Sudeste 8 Sudeste 0 947.6 0.8 41
2020-03-09 22:00:00 11.9 0 Calma 10 Nordeste 0 947.3 1.1 39
2020-03-09 21:00:00 12.1 5 Nordeste 13 Nordeste 0 946.9 0.9 38
2020-03-09 20:00:00 13.3 2 Noroeste 13 Este 0 946.8 0.9 36
2020-03-09 19:00:00 14.9 8 Noroeste 19 Noroeste 0 946.2 0 33
2020-03-09 18:00:00 16 5 Nordeste 17 Sudeste 0 946 -0.2 31
2020-03-09 17:00:00 16.4 4 Este 18 Sudoeste 0 945.9 -1.2 31
2020-03-09 16:00:00 16.3 2 Sudeste 16 Norte 0 946.2 -1.1 32
2020-03-09 15:00:00 16.4 3 Norte 13 Norte 0 946.2 -1.9 32
2020-03-09 14:00:00 15.1 3 Oeste 14 Oeste 0 947.1 -1 37
2020-03-09 13:00:00 13.3 4 Oeste 11 Sudoeste 0 947.3 -0.3 42
2020-03-09 12:00:00 12.1 3 Sur 14 Este 0 948.1 1.4 45
2020-03-09 11:00:00 11.5 6 Este 14 Este 0 948.1 2.2 47
2020-03-09 10:00:00 9.6 6 Norte 15 Nordeste 0 947.6 2 52
2020-03-09 09:00:00 8 6 Norte 15 Nordeste 0 946.7 1.2 60
2020-03-09 08:00:00 7.2 8 Noroeste 29 Oeste 0 945.9 0.9 58
2020-03-09 07:00:00 7.8 13 Noroeste 23 Noroeste 0 945.6 0.4 55
2020-03-09 06:00:00 7.9 3 Noroeste 17 Noroeste 0 945.5 -0.3 55
2020-03-09 05:00:00 8.9 12 Noroeste 35 Oeste 0 945 -1.3 54
2020-03-09 04:00:00 9.6 10 Oeste 35 Oeste 0 945.2 -0.7 52
2020-03-09 03:00:00 10.3 12 Oeste 31 Noroeste 0 945.8 -0.4 53
2020-03-09 02:00:00 10.7 17 Norte 40 Noroeste 0 946.3 -0.1 55
2020-03-09 01:00:00 10.3 8 Oeste 37 Oeste 0 945.9 -0.3 55
2020-03-09 00:00:00 10.8 8 Oeste 28 Oeste 0 946.2 0.6 55
2020-03-08 23:00:00 11 8 Noroeste 21 Noroeste 0 946.4 0.9 55
2020-03-08 22:00:00 11.2 9 Noroeste 22 Noroeste 0 946.2 1 55
2020-03-08 21:00:00 11.9 8 Noroeste 19 Noroeste 0 945.6 0.4 54
2020-03-08 20:00:00 12.8 6 Oeste 15 Noroeste 0 945.5 0.4 47
2020-03-08 19:00:00 13.4 7 Oeste 17 Oeste 0 945.2 0.1 47
2020-03-08 18:00:00 14.2 7 Oeste 21 Oeste 0 945.2 -0.5 44
2020-03-08 17:00:00 14.8 10 Oeste 22 Oeste 0 945.1 -1.1 40
2020-03-08 16:00:00 14.4 8 Oeste 18 Oeste 0 945.1 -1.6 40
2020-03-08 15:00:00 14 6 Oeste 17 Oeste 0 945.7 -1.4 39
2020-03-08 14:00:00 13.3 4 Sur 13 Sudoeste 0 946.2 -1.3 41
2020-03-08 13:00:00 11.8 3 Sudoeste 12 Sudoeste 0 946.7 -0.4 44
2020-03-08 12:00:00 10.3 4 Sur 11 Sudeste 0 947.1 0.3 51
2020-03-08 11:00:00 8.7 2 Nordeste 10 Sudeste 0 947.5 1.3 55
2020-03-08 10:00:00 6.3 4 Este 10 Este 0 947.1 1.1 62
2020-03-08 09:00:00 4.5 0 Calma 9 Este 0 946.8 1 70
2020-03-08 08:00:00 3.2 3 Este 8 Nordeste 0 946.2 0.2 75
2020-03-08 07:00:00 3.7 3 Nordeste 10 Nordeste 0 946 -0.1 73
2020-03-08 06:00:00 4.7 4 Este 9 Este 0 945.8 -0.6 71
2020-03-08 05:00:00 4.5 3 Este 5 Este 0 946 -0.3 73
2020-03-08 04:00:00 4.8 0 Calma 4 Sudeste 0 946.1 -0.4 69
2020-03-08 03:00:00 6 0 Calma 6 Sudoeste 0 946.4 -0.9 64
2020-03-08 02:00:00 7.2 3 Este 7 Este 0 946.3 -0.9 58
2020-03-08 01:00:00 8 2 Este 7 Nordeste 0 946.5 -0.3 58
2020-03-08 00:00:00 8 3 Noroeste 6 Norte 0 947.3 0.5 56